sensor_id;sensor_type;location;lat;lon;timestamp;P1;durP1;ratioP1;P2;durP2;ratioP2
63653;SDS011;49809;47.418;19.080;2022-07-06T00:00:27;2.37;;;2.17;;
63653;SDS011;49809;47.418;19.080;2022-07-06T00:04:05;2.72;;;2.37;;
63653;SDS011;49809;47.418;19.080;2022-07-06T00:07:33;3.22;;;2.08;;
63653;SDS011;49809;47.418;19.080;2022-07-06T00:11:14;2.53;;;2.05;;
63653;SDS011;49809;47.418;19.080;2022-07-06T00:14:44;2.78;;;2.30;;
63653;SDS011;49809;47.418;19.080;2022-07-06T00:18:26;2.40;;;2.12;;
63653;SDS011;49809;47.418;19.080;2022-07-06T00:21:52;2.75;;;2.28;;
63653;SDS011;49809;47.418;19.080;2022-07-06T00:25:31;2.33;;;1.90;;
63653;SDS011;49809;47.418;19.080;2022-07-06T00:29:02;2.83;;;2.37;;
63653;SDS011;49809;47.418;19.080;2022-07-06T00:32:40;2.28;;;2.00;;
63653;SDS011;49809;47.418;19.080;2022-07-06T00:36:08;2.62;;;2.10;;
63653;SDS011;49809;47.418;19.080;2022-07-06T00:39:45;2.03;;;1.83;;
63653;SDS011;49809;47.418;19.080;2022-07-06T00:43:14;2.65;;;1.90;;
63653;SDS011;49809;47.418;19.080;2022-07-06T00:46:54;2.67;;;2.03;;
63653;SDS011;49809;47.418;19.080;2022-07-06T00:50:23;2.55;;;2.22;;
63653;SDS011;49809;47.418;19.080;2022-07-06T00:54:02;3.85;;;2.20;;
63653;SDS011;49809;47.418;19.080;2022-07-06T00:57:41;3.25;;;2.17;;
63653;SDS011;49809;47.418;19.080;2022-07-06T01:01:19;2.80;;;2.20;;
63653;SDS011;49809;47.418;19.080;2022-07-06T01:04:50;2.65;;;2.30;;
63653;SDS011;49809;47.418;19.080;2022-07-06T01:08:19;3.00;;;2.00;;
63653;SDS011;49809;47.418;19.080;2022-07-06T01:11:57;2.17;;;1.80;;
63653;SDS011;49809;47.418;19.080;2022-07-06T01:15:34;2.15;;;1.87;;
63653;SDS011;49809;47.418;19.080;2022-07-06T01:19:06;3.33;;;1.83;;
63653;SDS011;49809;47.418;19.080;2022-07-06T01:22:49;3.05;;;2.30;;
63653;SDS011;49809;47.418;19.080;2022-07-06T01:26:19;2.25;;;1.92;;
63653;SDS011;49809;47.418;19.080;2022-07-06T01:30:00;2.97;;;2.10;;
63653;SDS011;49809;47.418;19.080;2022-07-06T01:33:26;4.47;;;2.37;;
63653;SDS011;49809;47.418;19.080;2022-07-06T01:37:06;1.90;;;1.70;;
63653;SDS011;49809;47.418;19.080;2022-07-06T01:40:46;2.15;;;1.95;;
63653;SDS011;49809;47.418;19.080;2022-07-06T01:44:26;2.00;;;1.80;;
63653;SDS011;49809;47.418;19.080;2022-07-06T01:48:07;2.10;;;1.83;;
63653;SDS011;49809;47.418;19.080;2022-07-06T01:51:45;2.45;;;2.03;;
63653;SDS011;49809;47.418;19.080;2022-07-06T01:55:25;3.37;;;2.00;;
63653;SDS011;49809;47.418;19.080;2022-07-06T01:59:04;2.15;;;1.95;;
63653;SDS011;49809;47.418;19.080;2022-07-06T02:02:43;4.15;;;2.00;;
63653;SDS011;49809;47.418;19.080;2022-07-06T02:06:20;1.87;;;1.55;;
63653;SDS011;49809;47.418;19.080;2022-07-06T02:09:50;2.17;;;1.90;;
63653;SDS011;49809;47.418;19.080;2022-07-06T02:13:31;2.12;;;1.92;;
63653;SDS011;49809;47.418;19.080;2022-07-06T02:17:07;2.33;;;1.90;;
63653;SDS011;49809;47.418;19.080;2022-07-06T02:20:47;2.20;;;2.00;;
63653;SDS011;49809;47.418;19.080;2022-07-06T02:24:13;2.30;;;2.10;;
63653;SDS011;49809;47.418;19.080;2022-07-06T02:27:52;2.67;;;2.05;;
63653;SDS011;49809;47.418;19.080;2022-07-06T02:31:32;1.98;;;1.77;;
63653;SDS011;49809;47.418;19.080;2022-07-06T02:35:10;2.90;;;1.60;;
63653;SDS011;49809;47.418;19.080;2022-07-06T02:38:47;2.25;;;1.70;;
63653;SDS011;49809;47.418;19.080;2022-07-06T02:42:19;2.70;;;2.12;;
63653;SDS011;49809;47.418;19.080;2022-07-06T02:45:56;3.47;;;2.00;;
63653;SDS011;49809;47.418;19.080;2022-07-06T02:49:36;3.30;;;1.85;;
63653;SDS011;49809;47.418;19.080;2022-07-06T02:53:19;2.50;;;1.95;;
63653;SDS011;49809;47.418;19.080;2022-07-06T02:56:56;4.30;;;2.28;;
63653;SDS011;49809;47.418;19.080;2022-07-06T03:00:33;2.40;;;2.10;;
63653;SDS011;49809;47.418;19.080;2022-07-06T03:04:10;2.12;;;1.85;;
63653;SDS011;49809;47.418;19.080;2022-07-06T03:07:48;2.67;;;2.25;;
63653;SDS011;49809;47.418;19.080;2022-07-06T03:11:27;3.28;;;2.55;;
63653;SDS011;49809;47.418;19.080;2022-07-06T03:15:06;3.22;;;2.92;;
63653;SDS011;49809;47.418;19.080;2022-07-06T03:18:49;3.92;;;2.40;;
63653;SDS011;49809;47.418;19.080;2022-07-06T03:22:34;2.60;;;2.15;;
63653;SDS011;49809;47.418;19.080;2022-07-06T03:26:08;4.75;;;3.45;;
63653;SDS011;49809;47.418;19.080;2022-07-06T03:29:49;6.62;;;3.45;;
63653;SDS011;49809;47.418;19.080;2022-07-06T03:33:28;4.30;;;3.30;;
63653;SDS011;49809;47.418;19.080;2022-07-06T03:37:08;2.33;;;2.12;;
63653;SDS011;49809;47.418;19.080;2022-07-06T03:40:47;4.20;;;2.85;;
63653;SDS011;49809;47.418;19.080;2022-07-06T03:44:25;2.40;;;2.20;;
63653;SDS011;49809;47.418;19.080;2022-07-06T03:47:57;2.72;;;2.00;;
63653;SDS011;49809;47.418;19.080;2022-07-06T03:51:35;2.25;;;2.05;;
63653;SDS011;49809;47.418;19.080;2022-07-06T03:55:12;2.20;;;1.87;;
63653;SDS011;49809;47.418;19.080;2022-07-06T03:58:51;2.20;;;1.85;;
63653;SDS011;49809;47.418;19.080;2022-07-06T04:02:30;2.28;;;1.95;;
63653;SDS011;49809;47.418;19.080;2022-07-06T04:06:12;2.08;;;1.90;;
63653;SDS011;49809;47.418;19.080;2022-07-06T04:09:50;4.05;;;1.67;;
63653;SDS011;49809;47.418;19.080;2022-07-06T04:13:33;1.62;;;1.52;;
63653;SDS011;49809;47.418;19.080;2022-07-06T04:17:11;3.28;;;2.10;;
63653;SDS011;49809;47.418;19.080;2022-07-06T04:21:07;2.47;;;1.87;;
63653;SDS011;49809;47.418;19.080;2022-07-06T04:24:44;2.45;;;2.08;;
63653;SDS011;49809;47.418;19.080;2022-07-06T04:28:24;2.03;;;1.83;;
63653;SDS011;49809;47.418;19.080;2022-07-06T04:32:06;2.08;;;1.87;;
63653;SDS011;49809;47.418;19.080;2022-07-06T04:35:44;4.12;;;1.92;;
63653;SDS011;49809;47.418;19.080;2022-07-06T04:39:21;2.20;;;1.87;;
63653;SDS011;49809;47.418;19.080;2022-07-06T04:42:58;1.87;;;1.67;;
63653;SDS011;49809;47.418;19.080;2022-07-06T04:46:38;2.00;;;1.65;;
63653;SDS011;49809;47.418;19.080;2022-07-06T04:50:15;2.03;;;1.83;;
63653;SDS011;49809;47.418;19.080;2022-07-06T04:53:56;2.45;;;2.00;;
63653;SDS011;49809;47.418;19.080;2022-07-06T04:57:35;2.20;;;2.00;;
63653;SDS011;49809;47.418;19.080;2022-07-06T05:01:13;2.00;;;1.73;;
63653;SDS011;49809;47.418;19.080;2022-07-06T05:04:55;2.12;;;1.75;;
63653;SDS011;49809;47.418;19.080;2022-07-06T05:08:33;3.28;;;1.90;;
63653;SDS011;49809;47.418;19.080;2022-07-06T05:12:13;1.95;;;1.75;;
63653;SDS011;49809;47.418;19.080;2022-07-06T05:15:53;3.75;;;2.00;;
63653;SDS011;49809;47.418;19.080;2022-07-06T05:19:25;2.78;;;2.20;;
63653;SDS011;49809;47.418;19.080;2022-07-06T05:23:07;2.62;;;1.90;;
63653;SDS011;49809;47.418;19.080;2022-07-06T05:26:45;2.35;;;2.15;;
63653;SDS011;49809;47.418;19.080;2022-07-06T05:30:25;2.05;;;1.70;;
63653;SDS011;49809;47.418;19.080;2022-07-06T05:34:05;2.53;;;2.03;;
63653;SDS011;49809;47.418;19.080;2022-07-06T05:37:45;2.03;;;1.60;;
63653;SDS011;49809;47.418;19.080;2022-07-06T05:41:22;2.00;;;1.80;;
63653;SDS011;49809;47.418;19.080;2022-07-06T05:45:00;1.77;;;1.67;;
63653;SDS011;49809;47.418;19.080;2022-07-06T05:48:39;3.90;;;2.08;;
63653;SDS011;49809;47.418;19.080;2022-07-06T05:52:35;1.73;;;1.62;;
63653;SDS011;49809;47.418;19.080;2022-07-06T05:55:38;2.10;;;1.60;;
63653;SDS011;49809;47.418;19.080;2022-07-06T05:58:43;3.03;;;1.98;;
63653;SDS011;49809;47.418;19.080;2022-07-06T06:01:48;2.55;;;1.95;;
63653;SDS011;49809;47.418;19.080;2022-07-06T06:04:53;2.70;;;1.80;;
63653;SDS011;49809;47.418;19.080;2022-07-06T06:08:04;3.12;;;1.73;;
63653;SDS011;49809;47.418;19.080;2022-07-06T06:11:08;1.85;;;1.73;;
63653;SDS011;49809;47.418;19.080;2022-07-06T06:14:15;2.50;;;1.75;;
63653;SDS011;49809;47.418;19.080;2022-07-06T06:17:21;2.10;;;1.90;;
63653;SDS011;49809;47.418;19.080;2022-07-06T06:20:31;2.30;;;1.80;;
63653;SDS011;49809;47.418;19.080;2022-07-06T06:23:37;2.80;;;1.75;;
63653;SDS011;49809;47.418;19.080;2022-07-06T06:26:40;1.87;;;1.60;;
63653;SDS011;49809;47.418;19.080;2022-07-06T06:29:43;2.33;;;2.12;;
63653;SDS011;49809;47.418;19.080;2022-07-06T06:32:46;2.00;;;1.80;;
63653;SDS011;49809;47.418;19.080;2022-07-06T06:35:50;3.05;;;1.90;;
63653;SDS011;49809;47.418;19.080;2022-07-06T06:38:58;3.95;;;1.92;;
63653;SDS011;49809;47.418;19.080;2022-07-06T06:42:02;3.60;;;2.10;;
63653;SDS011;49809;47.418;19.080;2022-07-06T06:45:06;2.83;;;1.98;;
63653;SDS011;49809;47.418;19.080;2022-07-06T06:48:10;2.10;;;1.90;;
63653;SDS011;49809;47.418;19.080;2022-07-06T06:51:18;2.10;;;1.85;;
63653;SDS011;49809;47.418;19.080;2022-07-06T06:54:26;2.13;;;1.93;;
63653;SDS011;49809;47.418;19.080;2022-07-06T06:57:29;2.65;;;2.05;;
63653;SDS011;49809;47.418;19.080;2022-07-06T07:00:32;2.22;;;2.00;;
63653;SDS011;49809;47.418;19.080;2022-07-06T07:03:35;2.65;;;1.90;;
63653;SDS011;49809;47.418;19.080;2022-07-06T07:06:40;1.90;;;1.60;;
63653;SDS011;49809;47.418;19.080;2022-07-06T07:09:43;3.83;;;1.95;;
63653;SDS011;49809;47.418;19.080;2022-07-06T07:12:48;2.90;;;2.00;;
63653;SDS011;49809;47.418;19.080;2022-07-06T07:15:53;1.87;;;1.70;;
63653;SDS011;49809;47.418;19.080;2022-07-06T07:18:56;3.47;;;2.00;;
63653;SDS011;49809;47.418;19.080;2022-07-06T07:22:01;2.15;;;1.92;;
63653;SDS011;49809;47.418;19.080;2022-07-06T07:25:05;2.80;;;1.80;;
63653;SDS011;49809;47.418;19.080;2022-07-06T07:28:12;2.00;;;1.80;;
63653;SDS011;49809;47.418;19.080;2022-07-06T07:31:18;1.92;;;1.70;;
63653;SDS011;49809;47.418;19.080;2022-07-06T07:34:23;2.55;;;1.90;;
63653;SDS011;49809;47.418;19.080;2022-07-06T07:37:27;2.40;;;2.20;;
63653;SDS011;49809;47.418;19.080;2022-07-06T07:40:31;2.33;;;2.12;;
63653;SDS011;49809;47.418;19.080;2022-07-06T07:43:35;1.90;;;1.80;;
63653;SDS011;49809;47.418;19.080;2022-07-06T07:46:38;2.20;;;2.00;;
63653;SDS011;49809;47.418;19.080;2022-07-06T07:49:41;3.53;;;2.22;;
63653;SDS011;49809;47.418;19.080;2022-07-06T07:52:45;2.20;;;2.00;;
63653;SDS011;49809;47.418;19.080;2022-07-06T07:55:48;3.25;;;2.08;;
63653;SDS011;49809;47.418;19.080;2022-07-06T07:58:50;1.70;;;1.60;;
63653;SDS011;49809;47.418;19.080;2022-07-06T08:01:56;4.28;;;2.10;;
63653;SDS011;49809;47.418;19.080;2022-07-06T08:05:01;3.85;;;1.83;;
63653;SDS011;49809;47.418;19.080;2022-07-06T08:08:07;3.05;;;1.60;;
63653;SDS011;49809;47.418;19.080;2022-07-06T08:11:10;2.17;;;1.73;;
63653;SDS011;49809;47.418;19.080;2022-07-06T08:14:19;1.80;;;1.70;;
63653;SDS011;49809;47.418;19.080;2022-07-06T08:17:22;1.80;;;1.70;;
63653;SDS011;49809;47.418;19.080;2022-07-06T08:20:25;2.00;;;1.55;;
63653;SDS011;49809;47.418;19.080;2022-07-06T08:23:28;1.67;;;1.58;;
63653;SDS011;49809;47.418;19.080;2022-07-06T08:26:31;1.77;;;1.50;;
63653;SDS011;49809;47.418;19.080;2022-07-06T08:29:37;2.85;;;1.45;;
63653;SDS011;49809;47.418;19.080;2022-07-06T08:32:40;1.70;;;1.60;;
63653;SDS011;49809;47.418;19.080;2022-07-06T08:36:06;1.87;;;1.77;;
63653;SDS011;49809;47.418;19.080;2022-07-06T08:39:09;1.50;;;1.40;;
63653;SDS011;49809;47.418;19.080;2022-07-06T08:42:17;1.70;;;1.60;;
63653;SDS011;49809;47.418;19.080;2022-07-06T08:45:22;2.22;;;1.95;;
63653;SDS011;49809;47.418;19.080;2022-07-06T08:48:31;2.00;;;1.80;;
63653;SDS011;49809;47.418;19.080;2022-07-06T08:51:39;1.70;;;1.60;;
63653;SDS011;49809;47.418;19.080;2022-07-06T08:54:43;1.45;;;1.35;;
63653;SDS011;49809;47.418;19.080;2022-07-06T08:57:46;1.80;;;1.70;;
63653;SDS011;49809;47.418;19.080;2022-07-06T09:00:49;1.60;;;1.50;;
63653;SDS011;49809;47.418;19.080;2022-07-06T09:03:53;1.30;;;1.20;;
63653;SDS011;49809;47.418;19.080;2022-07-06T09:06:57;1.65;;;1.30;;
63653;SDS011;49809;47.418;19.080;2022-07-06T09:10:00;1.60;;;1.48;;
63653;SDS011;49809;47.418;19.080;2022-07-06T09:13:06;1.95;;;1.50;;
63653;SDS011;49809;47.418;19.080;2022-07-06T09:16:12;1.60;;;1.50;;
63653;SDS011;49809;47.418;19.080;2022-07-06T09:19:39;1.77;;;1.67;;
63653;SDS011;49809;47.418;19.080;2022-07-06T09:22:42;2.22;;;1.80;;
63653;SDS011;49809;47.418;19.080;2022-07-06T09:25:47;3.25;;;1.60;;
63653;SDS011;49809;47.418;19.080;2022-07-06T09:28:54;1.80;;;1.70;;
63653;SDS011;49809;47.418;19.080;2022-07-06T09:32:02;1.87;;;1.77;;
63653;SDS011;49809;47.418;19.080;2022-07-06T09:35:06;2.20;;;1.70;;
63653;SDS011;49809;47.418;19.080;2022-07-06T09:38:10;1.65;;;1.55;;
63653;SDS011;49809;47.418;19.080;2022-07-06T09:41:29;1.83;;;1.70;;
63653;SDS011;49809;47.418;19.080;2022-07-06T09:44:33;5.68;;;1.98;;
63653;SDS011;49809;47.418;19.080;2022-07-06T09:47:39;1.85;;;1.65;;
63653;SDS011;49809;47.418;19.080;2022-07-06T09:50:51;1.58;;;1.48;;
63653;SDS011;49809;47.418;19.080;2022-07-06T09:53:57;1.70;;;1.60;;
63653;SDS011;49809;47.418;19.080;2022-07-06T09:57:02;1.67;;;1.58;;
63653;SDS011;49809;47.418;19.080;2022-07-06T10:00:10;1.58;;;1.48;;
63653;SDS011;49809;47.418;19.080;2022-07-06T10:03:14;2.00;;;1.80;;
63653;SDS011;49809;47.418;19.080;2022-07-06T10:06:18;2.23;;;1.70;;
63653;SDS011;49809;47.418;19.080;2022-07-06T10:09:24;2.00;;;1.70;;
63653;SDS011;49809;47.418;19.080;2022-07-06T10:12:29;1.85;;;1.75;;
63653;SDS011;49809;47.418;19.080;2022-07-06T10:15:32;2.03;;;1.70;;
63653;SDS011;49809;47.418;19.080;2022-07-06T10:18:36;1.80;;;1.70;;
63653;SDS011;49809;47.418;19.080;2022-07-06T10:21:39;2.00;;;1.20;;
63653;SDS011;49809;47.418;19.080;2022-07-06T10:24:43;2.00;;;1.52;;
63653;SDS011;49809;47.418;19.080;2022-07-06T10:27:48;1.77;;;1.50;;
63653;SDS011;49809;47.418;19.080;2022-07-06T10:30:50;1.52;;;1.42;;
63653;SDS011;49809;47.418;19.080;2022-07-06T10:33:54;1.60;;;1.50;;
63653;SDS011;49809;47.418;19.080;2022-07-06T10:36:59;1.60;;;1.50;;
63653;SDS011;49809;47.418;19.080;2022-07-06T10:40:05;1.60;;;1.50;;
63653;SDS011;49809;47.418;19.080;2022-07-06T10:43:41;1.60;;;1.50;;
63653;SDS011;49809;47.418;19.080;2022-07-06T10:46:55;1.70;;;1.60;;
63653;SDS011;49809;47.418;19.080;2022-07-06T10:50:00;1.60;;;1.50;;
63653;SDS011;49809;47.418;19.080;2022-07-06T10:53:11;1.62;;;1.52;;
63653;SDS011;49809;47.418;19.080;2022-07-06T10:56:17;1.50;;;1.40;;
63653;SDS011;49809;47.418;19.080;2022-07-06T10:59:21;1.40;;;1.30;;
63653;SDS011;49809;47.418;19.080;2022-07-06T11:02:25;1.50;;;1.40;;
63653;SDS011;49809;47.418;19.080;2022-07-06T11:05:40;1.55;;;1.35;;
63653;SDS011;49809;47.418;19.080;2022-07-06T11:09:04;2.08;;;1.60;;
63653;SDS011;49809;47.418;19.080;2022-07-06T11:12:18;1.90;;;1.62;;
63653;SDS011;49809;47.418;19.080;2022-07-06T11:15:46;1.40;;;1.30;;
63653;SDS011;49809;47.418;19.080;2022-07-06T11:18:59;1.77;;;1.60;;
63653;SDS011;49809;47.418;19.080;2022-07-06T11:22:09;1.50;;;1.40;;
63653;SDS011;49809;47.418;19.080;2022-07-06T11:25:14;2.12;;;1.77;;
63653;SDS011;49809;47.418;19.080;2022-07-06T11:28:19;1.80;;;1.70;;
63653;SDS011;49809;47.418;19.080;2022-07-06T11:31:22;1.70;;;1.60;;
63653;SDS011;49809;47.418;19.080;2022-07-06T11:34:28;1.73;;;1.62;;
63653;SDS011;49809;47.418;19.080;2022-07-06T11:37:36;2.15;;;1.60;;
63653;SDS011;49809;47.418;19.080;2022-07-06T11:40:41;1.70;;;1.60;;
63653;SDS011;49809;47.418;19.080;2022-07-06T11:43:47;3.78;;;1.62;;
63653;SDS011;49809;47.418;19.080;2022-07-06T11:47:15;2.58;;;1.60;;
63653;SDS011;49809;47.418;19.080;2022-07-06T11:50:26;1.55;;;1.37;;
63653;SDS011;49809;47.418;19.080;2022-07-06T11:53:29;1.80;;;1.70;;
63653;SDS011;49809;47.418;19.080;2022-07-06T11:56:32;2.25;;;1.42;;
63653;SDS011;49809;47.418;19.080;2022-07-06T11:59:35;1.92;;;1.83;;
63653;SDS011;49809;47.418;19.080;2022-07-06T12:02:41;2.35;;;1.98;;
63653;SDS011;49809;47.418;19.080;2022-07-06T12:06:01;1.73;;;1.62;;
63653;SDS011;49809;47.418;19.080;2022-07-06T12:09:08;2.10;;;1.90;;
63653;SDS011;49809;47.418;19.080;2022-07-06T12:12:14;2.10;;;1.90;;
63653;SDS011;49809;47.418;19.080;2022-07-06T12:15:26;2.10;;;1.90;;
63653;SDS011;49809;47.418;19.080;2022-07-06T12:18:37;1.40;;;1.30;;
63653;SDS011;49809;47.418;19.080;2022-07-06T12:21:44;2.08;;;1.70;;
63653;SDS011;49809;47.418;19.080;2022-07-06T12:24:53;1.98;;;1.77;;
63653;SDS011;49809;47.418;19.080;2022-07-06T12:27:56;3.05;;;1.67;;
63653;SDS011;49809;47.418;19.080;2022-07-06T12:31:00;3.90;;;1.48;;
63653;SDS011;49809;47.418;19.080;2022-07-06T12:34:12;1.98;;;1.77;;
63653;SDS011;49809;47.418;19.080;2022-07-06T12:37:19;3.25;;;1.70;;
63653;SDS011;49809;47.418;19.080;2022-07-06T12:40:27;2.30;;;1.87;;
63653;SDS011;49809;47.418;19.080;2022-07-06T12:43:40;2.30;;;2.10;;
63653;SDS011;49809;47.418;19.080;2022-07-06T12:46:43;1.90;;;1.80;;
63653;SDS011;49809;47.418;19.080;2022-07-06T12:49:47;2.13;;;1.93;;
63653;SDS011;49809;47.418;19.080;2022-07-06T12:52:50;2.33;;;2.00;;
63653;SDS011;49809;47.418;19.080;2022-07-06T12:56:11;2.08;;;1.90;;
63653;SDS011;49809;47.418;19.080;2022-07-06T12:59:20;1.65;;;1.55;;
63653;SDS011;49809;47.418;19.080;2022-07-06T13:02:32;1.60;;;1.50;;
63653;SDS011;49809;47.418;19.080;2022-07-06T13:05:59;1.60;;;1.50;;
63653;SDS011;49809;47.418;19.080;2022-07-06T13:09:02;1.50;;;1.40;;
63653;SDS011;49809;47.418;19.080;2022-07-06T13:12:08;2.03;;;1.50;;
63653;SDS011;49809;47.418;19.080;2022-07-06T13:15:12;1.65;;;1.50;;
63653;SDS011;49809;47.418;19.080;2022-07-06T13:18:17;3.05;;;1.55;;
63653;SDS011;49809;47.418;19.080;2022-07-06T13:21:24;2.42;;;1.60;;
63653;SDS011;49809;47.418;19.080;2022-07-06T13:24:27;1.98;;;1.60;;
63653;SDS011;49809;47.418;19.080;2022-07-06T13:27:30;1.65;;;1.55;;
63653;SDS011;49809;47.418;19.080;2022-07-06T13:30:33;2.37;;;1.50;;
63653;SDS011;49809;47.418;19.080;2022-07-06T13:33:36;2.25;;;1.60;;
63653;SDS011;49809;47.418;19.080;2022-07-06T13:36:41;2.03;;;1.52;;
63653;SDS011;49809;47.418;19.080;2022-07-06T13:39:48;2.60;;;1.70;;
63653;SDS011;49809;47.418;19.080;2022-07-06T13:42:51;1.85;;;1.40;;
63653;SDS011;49809;47.418;19.080;2022-07-06T13:45:57;2.30;;;1.48;;
63653;SDS011;49809;47.418;19.080;2022-07-06T13:49:01;1.62;;;1.40;;
63653;SDS011;49809;47.418;19.080;2022-07-06T13:52:10;2.12;;;1.45;;
63653;SDS011;49809;47.418;19.080;2022-07-06T13:55:12;1.92;;;1.70;;
63653;SDS011;49809;47.418;19.080;2022-07-06T13:58:16;2.15;;;1.67;;
63653;SDS011;49809;47.418;19.080;2022-07-06T14:01:20;1.77;;;1.62;;
63653;SDS011;49809;47.418;19.080;2022-07-06T14:04:34;1.55;;;1.45;;
63653;SDS011;49809;47.418;19.080;2022-07-06T14:07:36;2.33;;;1.30;;
63653;SDS011;49809;47.418;19.080;2022-07-06T14:10:40;2.08;;;1.50;;
63653;SDS011;49809;47.418;19.080;2022-07-06T14:13:43;1.48;;;1.37;;
63653;SDS011;49809;47.418;19.080;2022-07-06T14:17:06;1.92;;;1.50;;
63653;SDS011;49809;47.418;19.080;2022-07-06T14:20:09;4.35;;;1.48;;
63653;SDS011;49809;47.418;19.080;2022-07-06T14:23:17;3.03;;;1.55;;
63653;SDS011;49809;47.418;19.080;2022-07-06T14:26:21;1.40;;;1.30;;
63653;SDS011;49809;47.418;19.080;2022-07-06T14:29:24;1.52;;;1.40;;
63653;SDS011;49809;47.418;19.080;2022-07-06T14:32:27;1.27;;;1.17;;
63653;SDS011;49809;47.418;19.080;2022-07-06T14:35:31;1.60;;;1.30;;
63653;SDS011;49809;47.418;19.080;2022-07-06T14:38:34;1.48;;;1.37;;
63653;SDS011;49809;47.418;19.080;2022-07-06T14:41:38;2.45;;;1.65;;
63653;SDS011;49809;47.418;19.080;2022-07-06T14:44:41;1.50;;;1.40;;
63653;SDS011;49809;47.418;19.080;2022-07-06T14:47:47;1.12;;;1.02;;
63653;SDS011;49809;47.418;19.080;2022-07-06T14:50:51;1.42;;;1.20;;
63653;SDS011;49809;47.418;19.080;2022-07-06T14:53:55;2.37;;;1.30;;
63653;SDS011;49809;47.418;19.080;2022-07-06T14:56:57;1.30;;;1.20;;
63653;SDS011;49809;47.418;19.080;2022-07-06T15:00:01;1.42;;;1.33;;
63653;SDS011;49809;47.418;19.080;2022-07-06T15:03:05;1.25;;;1.15;;
63653;SDS011;49809;47.418;19.080;2022-07-06T15:06:14;1.30;;;1.10;;
63653;SDS011;49809;47.418;19.080;2022-07-06T15:09:37;2.42;;;0.93;;
63653;SDS011;49809;47.418;19.080;2022-07-06T15:12:41;0.90;;;0.90;;
63653;SDS011;49809;47.418;19.080;2022-07-06T15:15:47;1.98;;;0.90;;
63653;SDS011;49809;47.418;19.080;2022-07-06T15:19:03;0.80;;;0.70;;
63653;SDS011;49809;47.418;19.080;2022-07-06T15:22:06;0.80;;;0.80;;
63653;SDS011;49809;47.418;19.080;2022-07-06T15:25:09;0.95;;;0.85;;
63653;SDS011;49809;47.418;19.080;2022-07-06T15:28:13;2.75;;;1.00;;
63653;SDS011;49809;47.418;19.080;2022-07-06T15:31:19;1.15;;;0.90;;
63653;SDS011;49809;47.418;19.080;2022-07-06T15:34:26;0.80;;;0.80;;
63653;SDS011;49809;47.418;19.080;2022-07-06T15:37:34;0.80;;;0.80;;
63653;SDS011;49809;47.418;19.080;2022-07-06T15:40:42;1.05;;;0.95;;
63653;SDS011;49809;47.418;19.080;2022-07-06T15:43:51;1.73;;;1.00;;
63653;SDS011;49809;47.418;19.080;2022-07-06T15:46:59;1.07;;;0.93;;
63653;SDS011;49809;47.418;19.080;2022-07-06T15:50:09;0.90;;;0.90;;
63653;SDS011;49809;47.418;19.080;2022-07-06T15:53:12;1.10;;;1.00;;
63653;SDS011;49809;47.418;19.080;2022-07-06T15:56:18;1.15;;;1.00;;
63653;SDS011;49809;47.418;19.080;2022-07-06T15:59:21;2.53;;;1.00;;
63653;SDS011;49809;47.418;19.080;2022-07-06T16:02:28;0.80;;;0.80;;
63653;SDS011;49809;47.418;19.080;2022-07-06T16:05:44;1.58;;;0.90;;
63653;SDS011;49809;47.418;19.080;2022-07-06T16:09:10;1.00;;;0.90;;
63653;SDS011;49809;47.418;19.080;2022-07-06T16:12:16;1.10;;;1.00;;
63653;SDS011;49809;47.418;19.080;2022-07-06T16:15:21;1.10;;;1.00;;
63653;SDS011;49809;47.418;19.080;2022-07-06T16:18:28;1.10;;;1.00;;
63653;SDS011;49809;47.418;19.080;2022-07-06T16:21:31;1.45;;;1.00;;
63653;SDS011;49809;47.418;19.080;2022-07-06T16:24:40;1.00;;;0.95;;
63653;SDS011;49809;47.418;19.080;2022-07-06T16:27:43;0.90;;;0.90;;
63653;SDS011;49809;47.418;19.080;2022-07-06T16:31:10;0.77;;;0.77;;
63653;SDS011;49809;47.418;19.080;2022-07-06T16:34:12;0.95;;;0.85;;
63653;SDS011;49809;47.418;19.080;2022-07-06T16:37:19;1.35;;;0.95;;
63653;SDS011;49809;47.418;19.080;2022-07-06T16:40:22;1.42;;;1.10;;
63653;SDS011;49809;47.418;19.080;2022-07-06T16:47:18;1.52;;;1.10;;
63653;SDS011;49809;47.418;19.080;2022-07-06T16:50:21;1.42;;;1.23;;
63653;SDS011;49809;47.418;19.080;2022-07-06T16:56:47;1.10;;;1.00;;
63653;SDS011;49809;47.418;19.080;2022-07-06T16:59:53;1.33;;;1.15;;
63653;SDS011;49809;47.418;19.080;2022-07-06T17:02:57;1.50;;;1.10;;
63653;SDS011;49809;47.418;19.080;2022-07-06T17:06:00;2.75;;;1.08;;
63653;SDS011;49809;47.418;19.080;2022-07-06T17:09:10;1.58;;;1.10;;
63653;SDS011;49809;47.418;19.080;2022-07-06T17:12:14;2.08;;;1.27;;
63653;SDS011;49809;47.418;19.080;2022-07-06T17:15:17;1.33;;;1.20;;
63653;SDS011;49809;47.418;19.080;2022-07-06T17:18:27;1.15;;;1.05;;
63653;SDS011;49809;47.418;19.080;2022-07-06T17:21:30;0.93;;;0.93;;
63653;SDS011;49809;47.418;19.080;2022-07-06T17:24:34;1.55;;;1.10;;
63653;SDS011;49809;47.418;19.080;2022-07-06T17:27:37;1.48;;;1.37;;
63653;SDS011;49809;47.418;19.080;2022-07-06T17:30:43;2.65;;;1.60;;
63653;SDS011;49809;47.418;19.080;2022-07-06T17:33:48;1.58;;;1.45;;
63653;SDS011;49809;47.418;19.080;2022-07-06T17:36:53;1.60;;;1.42;;
63653;SDS011;49809;47.418;19.080;2022-07-06T17:39:58;2.87;;;1.40;;
63653;SDS011;49809;47.418;19.080;2022-07-06T17:43:02;1.50;;;1.40;;
63653;SDS011;49809;47.418;19.080;2022-07-06T17:46:06;1.52;;;1.20;;
63653;SDS011;49809;47.418;19.080;2022-07-06T17:49:13;1.98;;;1.30;;
63653;SDS011;49809;47.418;19.080;2022-07-06T17:52:21;1.12;;;1.00;;
63653;SDS011;49809;47.418;19.080;2022-07-06T17:55:31;1.20;;;1.02;;
63653;SDS011;49809;47.418;19.080;2022-07-06T17:58:35;1.10;;;0.93;;
63653;SDS011;49809;47.418;19.080;2022-07-06T18:01:38;1.15;;;1.00;;
63653;SDS011;49809;47.418;19.080;2022-07-06T18:05:04;2.78;;;1.25;;
63653;SDS011;49809;47.418;19.080;2022-07-06T18:08:08;1.35;;;1.05;;
63653;SDS011;49809;47.418;19.080;2022-07-06T18:11:17;1.75;;;1.00;;
63653;SDS011;49809;47.418;19.080;2022-07-06T18:14:20;2.47;;;1.02;;
63653;SDS011;49809;47.418;19.080;2022-07-06T18:17:23;1.15;;;0.95;;
63653;SDS011;49809;47.418;19.080;2022-07-06T18:23:33;1.17;;;0.80;;
63653;SDS011;49809;47.418;19.080;2022-07-06T18:26:39;1.08;;;0.90;;
63653;SDS011;49809;47.418;19.080;2022-07-06T18:29:48;2.03;;;0.90;;
63653;SDS011;49809;47.418;19.080;2022-07-06T18:32:56;0.98;;;0.80;;
63653;SDS011;49809;47.418;19.080;2022-07-06T18:36:06;1.00;;;0.90;;
63653;SDS011;49809;47.418;19.080;2022-07-06T18:39:12;0.90;;;0.80;;
63653;SDS011;49809;47.418;19.080;2022-07-06T18:42:15;1.10;;;0.88;;
63653;SDS011;49809;47.418;19.080;2022-07-06T18:45:21;0.80;;;0.80;;
63653;SDS011;49809;47.418;19.080;2022-07-06T18:48:35;1.37;;;0.90;;
63653;SDS011;49809;47.418;19.080;2022-07-06T18:51:40;1.27;;;0.80;;
63653;SDS011;49809;47.418;19.080;2022-07-06T18:57:55;1.20;;;1.00;;
63653;SDS011;49809;47.418;19.080;2022-07-06T19:01:01;4.32;;;1.00;;
63653;SDS011;49809;47.418;19.080;2022-07-06T19:04:06;0.98;;;0.88;;
63653;SDS011;49809;47.418;19.080;2022-07-06T19:07:12;1.42;;;0.90;;
63653;SDS011;49809;47.418;19.080;2022-07-06T19:10:17;1.00;;;0.90;;
63653;SDS011;49809;47.418;19.080;2022-07-06T19:13:20;1.00;;;0.90;;
63653;SDS011;49809;47.418;19.080;2022-07-06T19:16:26;0.85;;;0.85;;
63653;SDS011;49809;47.418;19.080;2022-07-06T19:19:31;1.45;;;0.90;;
63653;SDS011;49809;47.418;19.080;2022-07-06T19:22:34;2.62;;;1.00;;
63653;SDS011;49809;47.418;19.080;2022-07-06T19:25:39;1.30;;;0.85;;
63653;SDS011;49809;47.418;19.080;2022-07-06T19:28:45;1.08;;;0.93;;